Time;durP1;ratioP1;P1;durP2;ratioP2;P2;SDS_P1;SDS_P2;PMS_P1;PMS_P2;Temp;Humidity;BMP_temperature;BMP_pressure;BME280_temperature;BME280_humidity;BME280_pressure;Samples;Min_cycle;Max_cycle;Signal;HPM_P1;HPM_P2
2021/10/19 00:00:14;;;;;;;6.18;4.18;;;;;;;27.18;41.54;101608.59;347076;28;1089;-65
2021/10/19 00:00:31;;;;;;;6.63;4.35;;;;;;;27.18;41.50;101601.38;348129;28;1038;-65
2021/10/19 00:00:43;;;;;;;6.40;4.13;;;;;;;27.14;41.38;101597.22;348119;28;1038;-64
2021/10/19 00:01:00;;;;;;;5.97;3.90;;;;;;;27.19;41.67;101603.03;348074;28;1042;-65
2021/10/19 00:01:12;;;;;;;6.32;3.92;;;;;;;27.15;41.79;101598.09;348945;28;1035;-66
2021/10/19 00:01:25;;;;;;;6.00;3.80;;;;;;;27.15;41.77;101595.41;349587;28;1121;-65
2021/10/19 00:01:42;;;;;;;5.70;3.95;;;;;;;27.03;41.65;101576.63;349456;28;1054;-64
2021/10/19 00:01:54;;;;;;;5.70;4.00;;;;;;;27.15;41.47;101590.84;349552;28;1098;-66
2021/10/19 00:02:11;;;;;;;6.25;4.10;;;;;;;27.19;41.69;101603.03;349540;28;1065;-64
2021/10/19 00:02:29;;;;;;;6.95;4.10;;;;;;;27.12;41.89;101596.50;350022;28;1142;-64
2021/10/19 00:02:42;;;;;;;6.95;4.25;;;;;;;27.19;41.51;101607.59;350894;28;1080;-63
2021/10/19 00:02:55;;;;;;;6.63;4.40;;;;;;;27.20;41.37;101598.50;350531;28;1288;-64
2021/10/19 00:03:11;;;;;;;5.90;4.20;;;;;;;27.11;41.72;101586.72;349610;28;1046;-65
2021/10/19 00:03:23;;;;;;;5.82;4.15;;;;;;;27.10;41.57;101591.25;349582;28;1018;-63
2021/10/19 00:03:36;;;;;;;6.00;4.15;;;;;;;27.07;41.43;101588.84;349603;28;1152;-66
2021/10/19 00:03:48;;;;;;;6.20;4.10;;;;;;;27.19;41.56;101602.19;349610;28;1118;-66
2021/10/19 00:04:00;;;;;;;5.85;3.97;;;;;;;27.10;41.89;101590.41;349507;28;1090;-65
2021/10/19 00:04:12;;;;;;;6.00;4.10;;;;;;;27.17;41.78;101599.66;349592;28;1133;-62
2021/10/19 00:04:29;;;;;;;5.88;4.00;;;;;;;27.20;41.67;101603.91;349614;28;1086;-64
2021/10/19 00:04:41;;;;;;;5.70;3.95;;;;;;;27.06;41.91;101584.44;349770;28;1116;-65
2021/10/19 00:04:53;;;;;;;5.78;4.00;;;;;;;27.11;41.61;101594.81;350906;28;986;-66
2021/10/19 00:05:07;;;;;;;5.90;3.83;;;;;;;27.19;41.38;101605.75;350888;28;1121;-63
2021/10/19 00:05:24;;;;;;;6.25;3.85;;;;;;;27.14;41.49;101599.09;349932;28;1501;-65
2021/10/19 00:05:36;;;;;;;6.07;4.07;;;;;;;27.20;41.62;101606.63;349375;28;1010;-64
2021/10/19 00:05:48;;;;;;;5.72;4.07;;;;;;;27.19;41.61;101605.75;349479;28;1094;-64
2021/10/19 00:06:00;;;;;;;5.70;4.20;;;;;;;27.19;41.52;101605.75;349517;28;1064;-65
2021/10/19 00:06:13;;;;;;;5.75;4.22;;;;;;;27.19;41.74;101611.16;349570;28;1101;-65
2021/10/19 00:06:31;;;;;;;7.07;4.10;;;;;;;27.19;41.93;101604.91;349669;28;1093;-65
2021/10/19 00:06:43;;;;;;;7.05;4.10;;;;;;;27.18;41.76;101612.16;349549;28;1080;-66
2021/10/19 00:06:55;;;;;;;6.25;4.20;;;;;;;27.21;41.80;101611.03;348092;28;1034;-62
2021/10/19 00:07:07;;;;;;;5.93;4.30;;;;;;;27.15;41.76;101607.03;348133;28;1084;-65
2021/10/19 00:07:24;;;;;;;5.88;4.00;;;;;;;27.20;41.63;101606.63;348145;28;1254;-66
2021/10/19 00:07:37;;;;;;;5.65;3.88;;;;;;;27.14;41.59;101602.63;348264;28;1206;-65
2021/10/19 00:07:50;;;;;;;6.28;4.10;;;;;;;27.16;41.85;101607.88;349417;28;997;-66
2021/10/19 00:08:03;;;;;;;6.55;4.28;;;;;;;27.20;41.80;101612.00;349390;28;1201;-62
2021/10/19 00:08:15;;;;;;;6.45;4.40;;;;;;;27.18;41.50;101605.91;347946;28;1194;-66
2021/10/19 00:08:32;;;;;;;6.05;4.30;;;;;;;27.18;41.79;101604.06;348128;28;1054;-65
2021/10/19 00:08:44;;;;;;;5.53;3.95;;;;;;;27.19;41.46;101610.31;348069;28;1117;-65
2021/10/19 00:08:56;;;;;;;5.30;3.90;;;;;;;27.14;41.89;101602.63;349248;28;1116;-64
2021/10/19 00:09:13;;;;;;;5.47;4.10;;;;;;;27.22;41.80;101604.59;349576;28;1088;-65
2021/10/19 00:09:24;;;;;;;5.60;4.15;;;;;;;27.21;41.55;101609.16;349787;28;1217;-65
2021/10/19 00:09:41;;;;;;;6.30;4.05;;;;;;;27.15;41.54;101604.34;350915;28;1050;-66
2021/10/19 00:09:53;;;;;;;6.97;4.10;;;;;;;27.23;41.49;101609.00;350993;28;1094;-65
2021/10/19 00:10:08;;;;;;;6.60;4.30;;;;;;;27.14;41.42;101597.22;350943;28;1037;-66
2021/10/19 00:10:21;;;;;;;6.50;4.15;;;;;;;27.19;41.92;101600.34;350893;28;1184;-61
2021/10/19 00:10:38;;;;;;;5.90;3.95;;;;;;;27.17;41.70;101596.09;350988;28;1081;-63
2021/10/19 00:10:50;;;;;;;5.95;3.95;;;;;;;27.18;41.80;101595.09;350918;28;997;-66
2021/10/19 00:11:02;;;;;;;5.70;3.80;;;;;;;27.22;41.50;101605.47;351013;28;1101;-62
2021/10/19 00:11:19;;;;;;;5.70;3.95;;;;;;;27.20;41.56;101598.50;350962;28;1164;-64
2021/10/19 00:11:31;;;;;;;6.40;4.28;;;;;;;27.20;41.70;101602.06;351071;28;1113;-65
2021/10/19 00:11:43;;;;;;;6.32;4.20;;;;;;;27.21;41.92;101603.75;351067;28;903;-64
2021/10/19 00:12:00;;;;;;;5.85;4.10;;;;;;;26.91;41.45;101545.34;351008;28;764;-65
2021/10/19 00:12:12;;;;;;;6.10;4.20;;;;;;;27.23;41.44;101600.91;350986;28;1097;-65
2021/10/19 00:12:24;;;;;;;6.00;4.10;;;;;;;27.21;41.78;101594.81;350937;28;1101;-66
2021/10/19 00:12:41;;;;;;;5.82;4.00;;;;;;;27.21;41.70;101597.53;349908;28;1154;-65
2021/10/19 00:12:58;;;;;;;6.03;3.72;;;;;;;27.21;41.50;101597.53;349519;28;1041;-67
2021/10/19 00:13:11;;;;;;;6.57;3.80;;;;;;;27.08;41.76;101581.59;349535;28;1022;-64
2021/10/19 00:13:23;;;;;;;6.35;3.80;;;;;;;27.17;41.63;101593.38;349621;28;1098;-64
2021/10/19 00:13:36;;;;;;;5.78;3.75;;;;;;;27.13;41.46;101576.59;349479;28;1107;-65
2021/10/19 00:13:48;;;;;;;5.45;3.65;;;;;;;27.20;41.91;101596.66;349595;28;1073;-64
2021/10/19 00:14:00;;;;;;;5.60;3.70;;;;;;;27.18;41.50;101592.38;349522;28;1450;-65
2021/10/19 00:14:13;;;;;;;5.80;3.92;;;;;;;27.23;41.91;101606.31;349534;28;1003;-66
2021/10/19 00:14:29;;;;;;;6.97;4.15;;;;;;;27.23;41.73;101606.31;349662;28;1109;-65
2021/10/19 00:14:42;;;;;;;6.93;4.13;;;;;;;27.16;41.65;101589.84;350585;28;1135;-66
2021/10/19 00:14:59;;;;;;;5.88;4.03;;;;;;;27.17;41.52;101590.69;350970;28;1093;-66
2021/10/19 00:15:13;;;;;;;6.07;4.13;;;;;;;27.11;41.50;101581.31;350965;28;1041;-64
2021/10/19 00:15:30;;;;;;;6.45;4.13;;;;;;;27.24;41.57;101603.50;350929;28;931;-65
2021/10/19 00:15:42;;;;;;;6.05;4.07;;;;;;;27.24;41.45;101598.09;350949;28;1112;-65
2021/10/19 00:15:55;;;;;;;5.70;4.03;;;;;;;27.22;41.64;101596.50;350846;28;1061;-64
2021/10/19 00:16:11;;;;;;;5.97;4.00;;;;;;;27.19;41.45;101586.00;350891;28;1124;-65
2021/10/19 00:16:24;;;;;;;5.97;4.03;;;;;;;27.25;41.53;101607.03;350981;28;1049;-65
2021/10/19 00:16:41;;;;;;;5.40;3.85;;;;;;;27.22;41.83;101600.06;350934;28;1064;-66
2021/10/19 00:16:53;;;;;;;5.40;3.60;;;;;;;27.22;41.66;101597.38;350923;28;1145;-66
2021/10/19 00:17:05;;;;;;;6.07;3.60;;;;;;;27.24;41.48;101600.78;350885;28;1122;-62
2021/10/19 00:17:23;;;;;;;6.25;3.80;;;;;;;27.24;41.75;101603.50;350942;28;1100;-66
2021/10/19 00:17:36;;;;;;;5.72;3.88;;;;;;;27.26;41.62;101603.34;350942;28;1164;-63
2021/10/19 00:17:49;;;;;;;5.47;3.90;;;;;;;27.26;41.60;101598.78;350249;28;1130;-64
2021/10/19 00:18:01;;;;;;;5.53;4.00;;;;;;;27.18;41.35;101589.69;350192;28;1187;-64
2021/10/19 00:18:13;;;;;;;5.90;4.10;;;;;;;27.26;41.83;101598.78;351002;28;1054;-67
2021/10/19 00:18:30;;;;;;;5.65;3.92;;;;;;;27.21;41.46;101587.56;349870;28;1142;-64
2021/10/19 00:18:42;;;;;;;5.88;3.92;;;;;;;27.24;41.66;101599.91;349583;28;1149;-64
2021/10/19 00:18:54;;;;;;;5.95;3.83;;;;;;;27.23;41.49;101599.09;349511;28;963;-63
2021/10/19 00:19:11;;;;;;;6.47;3.72;;;;;;;27.26;41.66;101606.03;349573;28;1262;-65
2021/10/19 00:19:23;;;;;;;6.65;3.75;;;;;;;27.25;41.48;101599.75;349627;28;1093;-65
2021/10/19 00:19:42;;;;;;;5.53;3.58;;;;;;;27.19;41.40;101588.69;349566;28;951;-66
2021/10/19 00:19:54;;;;;;;5.25;3.70;;;;;;;27.20;41.47;101596.66;349452;28;1085;-65
2021/10/19 00:20:13;;;;;;;5.50;3.90;;;;;;;27.25;41.63;101607.03;349395;28;1070;-63
2021/10/19 00:20:25;;;;;;;5.68;3.80;;;;;;;27.25;41.36;101599.75;349584;28;1089;-66
2021/10/19 00:20:37;;;;;;;5.75;3.67;;;;;;;27.21;41.74;101586.72;349603;28;1053;-63
2021/10/19 00:20:54;;;;;;;5.80;3.55;;;;;;;27.22;41.50;101591.09;349587;28;1168;-66
2021/10/19 00:21:10;;;;;;;5.80;3.80;;;;;;;27.27;41.76;101603.19;349443;28;2073;-66
2021/10/19 00:21:27;;;;;;;5.60;3.85;;;;;;;27.15;41.43;101581.88;349576;28;1175;-64
2021/10/19 00:21:39;;;;;;;5.68;3.80;;;;;;;27.22;41.33;101593.81;349515;28;1180;-66
2021/10/19 00:21:51;;;;;;;6.00;3.80;;;;;;;27.25;41.79;101602.47;349512;28;1122;-66
2021/10/19 00:22:04;;;;;;;6.38;4.00;;;;;;;27.27;41.50;101597.78;349503;28;1082;-65
2021/10/19 00:22:16;;;;;;;5.97;3.90;;;;;;;27.22;41.51;101591.97;349565;28;1045;-65
2021/10/19 00:22:33;;;;;;;5.35;3.90;;;;;;;27.30;41.76;101601.22;348072;28;1178;-65
2021/10/19 00:22:45;;;;;;;5.15;3.90;;;;;;;27.25;41.62;101594.38;349466;28;1089;-66
2021/10/19 00:22:58;;;;;;;5.82;3.95;;;;;;;27.27;41.57;101603.19;349201;28;1253;-65
2021/10/19 00:23:10;;;;;;;6.35;3.95;;;;;;;27.27;41.62;101599.66;348561;28;1357;-67
2021/10/19 00:23:22;;;;;;;6.57;4.00;;;;;;;27.27;41.60;101600.50;349478;28;1077;-63
2021/10/19 00:23:39;;;;;;;5.65;3.88;;;;;;;27.24;41.56;101597.22;348572;28;1142;-65
2021/10/19 00:23:51;;;;;;;5.43;3.72;;;;;;;27.29;41.42;101605.75;348169;28;1176;-64
2021/10/19 00:24:03;;;;;;;5.65;3.70;;;;;;;27.29;41.39;101604.91;347954;28;1976;-65
2021/10/19 00:24:15;;;;;;;6.05;3.80;;;;;;;27.10;41.48;101575.06;348053;28;1010;-66
2021/10/19 00:24:32;;;;;;;6.10;3.70;;;;;;;27.23;41.47;101590.97;349574;28;1084;-65
2021/10/19 00:24:44;;;;;;;6.25;3.65;;;;;;;27.15;41.33;101582.72;349576;28;898;-66
2021/10/19 00:24:56;;;;;;;6.43;3.63;;;;;;;27.19;41.64;101588.69;349795;28;1178;-66
2021/10/19 00:25:17;;;;;;;5.53;3.60;;;;;;;27.27;41.64;101599.66;350894;28;1085;-65
2021/10/19 00:25:29;;;;;;;5.53;3.78;;;;;;;27.24;41.63;101600.78;350949;28;1040;-63
2021/10/19 00:25:41;;;;;;;5.72;3.80;;;;;;;27.26;41.36;101598.78;350983;28;1081;-66
2021/10/19 00:25:53;;;;;;;6.10;3.90;;;;;;;27.21;41.43;101590.25;349535;28;1082;-66
2021/10/19 00:26:10;;;;;;;6.22;4.00;;;;;;;27.23;41.74;101590.97;349388;28;1006;-64
2021/10/19 00:26:22;;;;;;;5.90;3.83;;;;;;;27.27;41.60;101603.19;349420;28;1069;-64
2021/10/19 00:26:34;;;;;;;5.68;3.70;;;;;;;27.21;41.48;101586.72;349449;28;1093;-66
2021/10/19 00:26:51;;;;;;;6.38;3.90;;;;;;;27.28;41.40;101601.34;349432;28;1195;-66
2021/10/19 00:27:05;;;;;;;6.07;4.07;;;;;;;27.27;41.42;101600.50;349399;28;1007;-65
2021/10/19 00:27:22;;;;;;;6.18;4.00;;;;;;;27.29;41.78;101599.50;349289;28;1076;-64
2021/10/19 00:27:34;;;;;;;6.47;4.10;;;;;;;27.25;41.30;101598.94;349550;28;1030;-66
2021/10/19 00:27:51;;;;;;;5.93;4.25;;;;;;;27.28;41.82;101598.66;350166;28;1085;-65
2021/10/19 00:28:04;;;;;;;5.47;4.00;;;;;;;27.25;41.68;101593.53;350785;28;1323;-66
2021/10/19 00:28:21;;;;;;;5.28;3.65;;;;;;;27.18;41.74;101582.47;350202;28;1230;-64
2021/10/19 00:28:34;;;;;;;5.40;3.60;;;;;;;27.20;41.55;101588.56;350898;28;1762;-66
2021/10/19 00:28:50;;;;;;;5.78;3.80;;;;;;;27.24;41.39;101594.50;349863;28;1224;-65
2021/10/19 00:29:03;;;;;;;6.40;3.83;;;;;;;27.27;41.67;101602.34;348090;28;1030;-65
2021/10/19 00:29:15;;;;;;;6.45;3.80;;;;;;;27.23;41.89;101585.56;348111;28;1120;-66
2021/10/19 00:29:32;;;;;;;6.18;3.80;;;;;;;27.27;41.85;101595.09;348018;28;1084;-62
2021/10/19 00:29:44;;;;;;;6.32;3.85;;;;;;;27.18;41.50;101581.59;347960;28;1033;-63
2021/10/19 00:29:56;;;;;;;6.20;3.80;;;;;;;27.27;41.36;101597.78;347967;28;1013;-66
2021/10/19 00:30:14;;;;;;;5.63;3.70;;;;;;;27.24;41.50;101598.09;349188;28;1250;-63
2021/10/19 00:30:26;;;;;;;5.22;3.53;;;;;;;27.21;41.56;101584.84;349503;28;676;-66
2021/10/19 00:30:43;;;;;;;5.38;3.45;;;;;;;27.16;41.49;101576.34;349507;28;1211;-66
2021/10/19 00:30:55;;;;;;;5.95;3.72;;;;;;;27.25;41.71;101597.06;349504;28;1109;-66
2021/10/19 00:31:08;;;;;;;7.13;4.00;;;;;;;27.28;41.69;101595.97;351011;28;804;-65
2021/10/19 00:31:20;;;;;;;6.60;3.95;;;;;;;27.25;41.88;101588.97;350899;28;1109;-64
2021/10/19 00:31:38;;;;;;;5.50;3.53;;;;;;;27.24;41.57;101592.69;350989;28;879;-65
2021/10/19 00:31:52;;;;;;;5.43;3.53;;;;;;;27.25;41.38;101594.38;351039;28;990;-63
2021/10/19 00:32:04;;;;;;;5.72;3.80;;;;;;;27.24;42.03;101592.69;349380;28;1136;-65
2021/10/19 00:32:22;;;;;;;5.95;3.80;;;;;;;27.13;41.50;101571.22;349349;28;1047;-65
2021/10/19 00:32:34;;;;;;;5.53;3.50;;;;;;;27.19;41.32;101575.19;349444;28;1097;-66
2021/10/19 00:32:46;;;;;;;5.20;3.65;;;;;;;27.22;41.50;101583.00;349434;28;1172;-64
2021/10/19 00:33:03;;;;;;;5.57;4.05;;;;;;;27.27;41.60;101592.38;349425;28;1164;-65
2021/10/19 00:33:15;;;;;;;5.53;3.90;;;;;;;27.29;41.35;101594.09;349196;28;1189;-66
2021/10/19 00:33:27;;;;;;;5.40;3.70;;;;;;;27.26;41.62;101590.69;348108;28;1411;-65
2021/10/19 00:33:44;;;;;;;5.57;3.70;;;;;;;27.22;41.39;101577.59;348984;28;1210;-66
2021/10/19 00:33:56;;;;;;;5.55;3.70;;;;;;;27.26;41.61;101585.28;348416;28;1230;-64
2021/10/19 00:34:13;;;;;;;5.75;3.95;;;;;;;27.19;41.86;101572.50;350894;28;1038;-65
2021/10/19 00:34:25;;;;;;;5.47;3.80;;;;;;;27.29;41.41;101581.44;350940;28;1136;-65
2021/10/19 00:34:42;;;;;;;5.20;3.60;;;;;;;27.03;41.53;101543.38;350772;28;990;-62
2021/10/19 00:34:55;;;;;;;5.40;3.60;;;;;;;27.22;41.85;101574.91;350963;28;1901;-66
2021/10/19 00:35:12;;;;;;;5.40;3.60;;;;;;;27.30;41.46;101582.31;350938;28;1017;-66
2021/10/19 00:35:29;;;;;;;5.30;3.67;;;;;;;27.29;41.41;101583.28;349525;28;927;-65
2021/10/19 00:35:41;;;;;;;5.30;3.60;;;;;;;27.17;41.62;101567.25;349504;28;1205;-65
2021/10/19 00:35:58;;;;;;;5.40;3.72;;;;;;;27.26;41.55;101585.28;349502;28;1058;-66
2021/10/19 00:36:10;;;;;;;5.57;3.78;;;;;;;27.24;41.59;101579.19;349565;28;1097;-65
2021/10/19 00:36:23;;;;;;;5.78;3.72;;;;;;;27.29;41.81;101583.28;349486;28;1026;-65
2021/10/19 00:36:40;;;;;;;6.18;3.60;;;;;;;27.19;41.42;101570.63;349540;28;1137;-66
2021/10/19 00:36:57;;;;;;;6.10;3.42;;;;;;;27.25;41.42;101583.56;349429;28;1118;-65
2021/10/19 00:37:14;;;;;;;5.85;3.55;;;;;;;27.29;41.64;101584.13;349508;28;1049;-66
2021/10/19 00:37:26;;;;;;;5.70;3.67;;;;;;;27.30;41.40;101585.00;349452;28;1024;-66
2021/10/19 00:37:43;;;;;;;6.03;3.88;;;;;;;27.28;41.72;101582.44;349583;28;1114;-65
2021/10/19 00:37:55;;;;;;;6.18;3.83;;;;;;;27.31;41.53;101586.72;349546;28;1014;-67
2021/10/19 00:38:07;;;;;;;6.38;3.88;;;;;;;27.22;41.79;101566.78;349515;28;1045;-64
2021/10/19 00:38:24;;;;;;;6.07;3.88;;;;;;;27.19;41.67;101564.41;349477;28;1190;-67
2021/10/19 00:38:36;;;;;;;5.60;3.75;;;;;;;27.26;41.40;101579.88;349678;28;1181;-64
2021/10/19 00:38:53;;;;;;;5.78;3.85;;;;;;;27.26;41.52;101579.88;349470;28;1101;-66
2021/10/19 00:39:05;;;;;;;5.22;3.60;;;;;;;27.27;41.42;101576.19;349525;28;1135;-66
2021/10/19 00:39:22;;;;;;;5.68;3.50;;;;;;;27.29;41.51;101578.72;350902;28;795;-66
2021/10/19 00:39:34;;;;;;;6.30;3.80;;;;;;;27.29;41.58;101581.44;350882;28;1081;-65
2021/10/19 00:39:51;;;;;;;5.93;4.05;;;;;;;27.26;41.48;101579.03;350986;28;1172;-66
2021/10/19 00:40:04;;;;;;;6.38;4.20;;;;;;;27.23;41.45;101574.78;350972;28;815;-66
2021/10/19 00:40:22;;;;;;;6.63;3.83;;;;;;;27.29;41.45;101581.44;349397;28;1045;-66
2021/10/19 00:40:37;;;;;;;6.28;3.70;;;;;;;27.27;41.38;101584.28;348083;28;1221;-64
2021/10/19 00:40:49;;;;;;;6.32;3.78;;;;;;;27.29;41.64;101575.19;348109;28;993;-66
2021/10/19 00:41:01;;;;;;;6.60;3.80;;;;;;;27.24;41.57;101570.22;347896;28;1088;-65
2021/10/19 00:41:13;;;;;;;6.15;3.78;;;;;;;27.28;41.72;101574.34;347883;28;1555;-63
2021/10/19 00:41:30;;;;;;;5.40;3.60;;;;;;;27.28;41.84;101579.75;347926;28;1098;-67
2021/10/19 00:41:43;;;;;;;5.88;3.50;;;;;;;27.28;41.41;101577.06;348014;28;1074;-66
2021/10/19 00:42:00;;;;;;;5.85;3.38;;;;;;;27.32;41.41;101583.03;348056;28;1154;-66
2021/10/19 00:42:12;;;;;;;5.43;3.67;;;;;;;27.26;41.43;101579.03;348397;28;1090;-65
2021/10/19 00:42:24;;;;;;;5.38;3.80;;;;;;;27.31;41.72;101586.72;349542;28;1183;-66
2021/10/19 00:42:41;;;;;;;5.53;3.83;;;;;;;27.31;41.63;101582.16;349468;28;1093;-64
2021/10/19 00:42:53;;;;;;;5.45;3.85;;;;;;;27.27;41.35;101578.88;349560;28;1133;-67
2021/10/19 00:43:10;;;;;;;5.40;3.75;;;;;;;27.26;41.68;101576.34;349416;28;1060;-65
2021/10/19 00:43:25;;;;;;;5.47;3.53;;;;;;;27.31;41.60;101575.91;349440;28;1134;-63
2021/10/19 00:43:39;;;;;;;5.50;3.50;;;;;;;27.31;41.56;101584.84;349487;28;1185;-61
2021/10/19 00:43:52;;;;;;;5.32;3.58;;;;;;;27.23;41.61;101569.38;350038;28;1138;-64
2021/10/19 00:44:04;;;;;;;5.18;3.50;;;;;;;27.22;41.49;101570.38;350916;28;1081;-66
2021/10/19 00:44:21;;;;;;;5.15;3.60;;;;;;;27.28;41.67;101577.06;349899;28;1182;-65
2021/10/19 00:44:33;;;;;;;5.38;3.70;;;;;;;27.33;41.83;101582.00;349575;28;1140;-67
2021/10/19 00:44:50;;;;;;;5.55;3.40;;;;;;;27.28;41.76;101579.75;349557;28;1046;-66
2021/10/19 00:45:07;;;;;;;5.63;3.40;;;;;;;27.30;41.67;101576.91;349473;28;1972;-65
2021/10/19 00:45:19;;;;;;;5.85;3.72;;;;;;;27.31;41.72;101584.84;349439;28;1020;-66
2021/10/19 00:45:32;;;;;;;5.78;3.90;;;;;;;27.30;41.59;101580.44;349515;28;1029;-66
2021/10/19 00:45:44;;;;;;;6.35;3.83;;;;;;;27.30;41.65;101577.75;350660;28;1258;-64
2021/10/19 00:46:01;;;;;;;6.07;3.65;;;;;;;27.27;41.40;101575.34;350872;28;1073;-66
2021/10/19 00:46:14;;;;;;;5.50;3.60;;;;;;;27.32;41.33;101577.63;350864;28;1057;-65
2021/10/19 00:46:31;;;;;;;5.95;3.72;;;;;;;27.31;41.39;101576.75;350777;28;1157;-66
2021/10/19 00:46:44;;;;;;;5.88;3.78;;;;;;;27.33;41.43;101577.47;350934;28;1085;-66
2021/10/19 00:46:58;;;;;;;6.00;3.72;;;;;;;27.24;41.57;101571.09;350986;28;1085;-67
2021/10/19 00:47:10;;;;;;;5.72;3.70;;;;;;;27.34;41.78;101591.81;350926;28;1030;-66
2021/10/19 00:47:23;;;;;;;5.93;3.70;;;;;;;27.34;41.70;101591.81;350987;28;701;-65
2021/10/19 00:47:52;;;;;;;6.00;3.80;;;;;;;27.27;41.59;101586.97;350877;28;1093;-65
2021/10/19 00:48:05;;;;;;;5.20;3.67;;;;;;;27.30;41.83;101585.00;350875;28;1006;-66
2021/10/19 00:48:27;;;;;;;5.53;3.63;;;;;;;27.34;41.54;101583.69;351009;28;693;-66
2021/10/19 00:48:46;;;;;;;5.75;3.80;;;;;;;27.33;41.80;101590.97;350898;28;1037;-66
2021/10/19 00:48:58;;;;;;;5.40;3.75;;;;;;;27.27;41.81;101581.56;349578;28;1415;-66
2021/10/19 00:49:10;;;;;;;5.28;3.60;;;;;;;27.34;41.56;101583.69;350968;28;1098;-66
2021/10/19 00:49:22;;;;;;;5.22;3.53;;;;;;;27.33;41.58;101584.69;350932;28;1496;-66
2021/10/19 00:49:39;;;;;;;5.72;3.60;;;;;;;27.34;41.59;101586.41;349441;28;1081;-66
2021/10/19 00:49:51;;;;;;;6.20;3.58;;;;;;;27.33;41.49;101590.09;349595;28;1160;-66
2021/10/19 00:50:04;;;;;;;6.20;3.65;;;;;;;27.24;41.24;101576.47;349503;28;999;-66
2021/10/19 00:50:21;;;;;;;5.75;3.70;;;;;;;27.33;41.37;101588.28;349548;28;1050;-66
2021/10/19 00:50:34;;;;;;;5.68;3.58;;;;;;;27.26;41.78;101573.63;349569;28;1101;-66
2021/10/19 00:50:51;;;;;;;5.45;3.53;;;;;;;27.29;41.51;101581.44;350145;28;1137;-66
2021/10/19 00:51:10;;;;;;;5.93;3.50;;;;;;;27.33;41.65;101590.97;350873;28;1086;-66
2021/10/19 00:51:22;;;;;;;5.90;3.50;;;;;;;27.33;41.49;101588.28;349370;28;1056;-64
2021/10/19 00:51:35;;;;;;;5.25;3.47;;;;;;;27.32;41.59;101586.56;349477;28;1099;-66
2021/10/19 00:51:47;;;;;;;5.43;3.63;;;;;;;27.31;41.88;101579.44;349357;28;1093;-65
2021/10/19 00:52:04;;;;;;;5.78;3.85;;;;;;;27.30;41.57;101585.00;349475;28;1175;-66
2021/10/19 00:52:18;;;;;;;5.93;3.85;;;;;;;27.33;41.67;101592.81;349509;28;1089;-66
2021/10/19 00:52:31;;;;;;;5.68;3.72;;;;;;;27.24;41.57;101573.78;349414;28;1105;-63
2021/10/19 00:52:44;;;;;;;5.65;3.72;;;;;;;27.34;41.73;101594.50;349424;28;1110;-66
2021/10/19 00:53:01;;;;;;;6.22;3.90;;;;;;;27.19;41.63;101567.94;349399;28;1026;-66
2021/10/19 00:53:15;;;;;;;6.13;3.80;;;;;;;27.29;41.53;101589.53;349403;28;1112;-63
2021/10/19 00:53:32;;;;;;;5.30;3.78;;;;;;;27.19;41.68;101572.50;350767;28;1030;-65
2021/10/19 00:53:45;;;;;;;5.22;3.80;;;;;;;27.31;41.76;101592.13;350976;28;650;-65
2021/10/19 00:53:57;;;;;;;5.80;3.63;;;;;;;27.23;41.57;101577.47;350579;28;1099;-66
2021/10/19 00:54:10;;;;;;;6.05;3.70;;;;;;;27.31;41.72;101586.72;349694;28;1195;-66
2021/10/19 00:54:23;;;;;;;5.63;3.70;;;;;;;27.30;41.65;101590.41;350897;28;2078;-64
2021/10/19 00:54:35;;;;;;;4.97;3.60;;;;;;;27.28;41.65;101585.16;350793;28;1221;-66
2021/10/19 00:54:49;;;;;;;5.05;3.55;;;;;;;27.31;41.63;101594.81;349575;28;943;-66
2021/10/19 00:55:03;;;;;;;5.32;3.60;;;;;;;27.31;41.42;101595.66;349525;28;835;-65
2021/10/19 00:55:20;;;;;;;5.65;3.45;;;;;;;27.28;41.69;101595.97;349572;28;973;-66
2021/10/19 00:55:33;;;;;;;5.53;3.40;;;;;;;27.18;41.51;101571.66;349432;28;931;-66
2021/10/19 00:55:50;;;;;;;5.35;3.60;;;;;;;27.31;41.42;101592.94;349441;28;1107;-65
2021/10/19 00:56:03;;;;;;;5.97;3.60;;;;;;;27.26;41.61;101587.97;350026;28;1079;-66
2021/10/19 00:56:15;;;;;;;5.80;3.60;;;;;;;27.31;41.75;101589.41;350936;28;1163;-66
2021/10/19 00:56:32;;;;;;;5.50;3.70;;;;;;;27.28;41.83;101590.56;350919;28;1128;-65
2021/10/19 00:56:45;;;;;;;5.78;3.63;;;;;;;27.32;41.57;101591.97;350811;28;1068;-66
2021/10/19 00:57:01;;;;;;;5.75;3.60;;;;;;;27.33;41.50;101595.50;350896;28;1048;-65
2021/10/19 00:57:14;;;;;;;5.60;3.55;;;;;;;27.24;41.49;101587.28;350887;28;807;-66
2021/10/19 00:57:31;;;;;;;5.53;3.47;;;;;;;27.31;41.16;101595.66;350895;28;1081;-66
2021/10/19 00:57:45;;;;;;;5.47;3.53;;;;;;;27.31;41.52;101602.91;350800;28;2066;-65
2021/10/19 00:58:05;;;;;;;5.43;3.40;;;;;;;27.32;41.67;101601.94;350921;28;1115;-64
2021/10/19 00:58:22;;;;;;;5.63;3.50;;;;;;;27.25;41.37;101585.44;350899;28;1172;-65
2021/10/19 00:58:37;;;;;;;6.15;3.70;;;;;;;27.24;41.73;101587.28;350964;28;1077;-65
2021/10/19 00:58:49;;;;;;;6.30;3.70;;;;;;;27.31;41.58;101603.75;350910;28;1141;-66
2021/10/19 00:59:01;;;;;;;5.53;3.72;;;;;;;27.29;41.63;101589.53;350940;28;997;-66
2021/10/19 00:59:14;;;;;;;5.43;3.75;;;;;;;27.25;41.50;101588.97;349990;28;1141;-65
2021/10/19 00:59:32;;;;;;;5.80;3.72;;;;;;;27.33;41.46;101601.78;349512;28;1092;-64
2021/10/19 00:59:46;;;;;;;6.28;3.60;;;;;;;27.33;41.82;101606.31;349508;28;1069;-66
2021/10/19 01:00:05;;;;;;;5.75;3.50;;;;;;;27.25;41.35;101593.53;349462;28;1109;-65
2021/10/19 01:00:18;;;;;;;5.28;3.30;;;;;;;27.33;41.65;101604.47;349543;28;1033;-66
2021/10/19 01:00:30;;;;;;;6.07;3.30;;;;;;;27.34;41.79;101605.31;349522;28;1089;-65
2021/10/19 01:00:42;;;;;;;6.63;3.42;;;;;;;27.22;41.48;101591.09;349453;28;1039;-65
2021/10/19 01:00:59;;;;;;;6.03;3.65;;;;;;;27.21;41.29;101582.16;349501;28;1089;-65
2021/10/19 01:01:11;;;;;;;5.43;3.60;;;;;;;27.31;41.34;101601.06;350099;28;1269;-66
2021/10/19 01:01:28;;;;;;;5.70;3.63;;;;;;;27.31;41.47;101594.81;350910;28;1069;-65
2021/10/19 01:01:41;;;;;;;6.65;3.67;;;;;;;27.20;41.76;101579.59;350983;28;1097;-65
2021/10/19 01:01:58;;;;;;;6.68;3.60;;;;;;;27.35;41.66;101607.03;350908;28;1176;-64
2021/10/19 01:02:12;;;;;;;5.57;3.50;;;;;;;27.34;41.62;101606.19;350914;28;1136;-67
2021/10/19 01:02:24;;;;;;;5.55;3.60;;;;;;;27.35;41.81;101609.72;350810;28;1085;-66
2021/10/19 01:02:43;;;;;;;6.90;3.60;;;;;;;27.35;41.56;101604.31;351007;28;1041;-66
2021/10/19 01:02:56;;;;;;;6.65;3.50;;;;;;;27.30;41.72;101599.34;350806;28;899;-66
2021/10/19 01:03:12;;;;;;;6.10;3.53;;;;;;;27.29;41.67;101594.09;350856;28;1392;-67
2021/10/19 01:03:30;;;;;;;6.63;3.50;;;;;;;27.26;41.64;101593.38;350829;28;1142;-65
2021/10/19 01:03:42;;;;;;;5.80;3.50;;;;;;;27.32;41.53;101599.22;350911;28;1085;-66
2021/10/19 01:03:54;;;;;;;5.03;3.50;;;;;;;27.33;41.31;101601.78;350863;28;1105;-66
2021/10/19 01:04:06;;;;;;;5.00;3.53;;;;;;;27.33;41.43;101604.47;350861;28;1053;-66
2021/10/19 01:04:22;;;;;;;4.97;3.42;;;;;;;27.30;41.70;101593.94;350141;28;1182;-65
2021/10/19 01:04:35;;;;;;;5.18;3.40;;;;;;;27.32;41.42;101600.06;350228;28;1210;-65
2021/10/19 01:04:51;;;;;;;5.97;3.30;;;;;;;27.21;41.58;101582.16;349463;28;1159;-64
2021/10/19 01:05:04;;;;;;;6.00;3.22;;;;;;;27.29;41.41;101605.75;350431;28;1186;-66
2021/10/19 01:05:16;;;;;;;5.72;3.17;;;;;;;27.37;41.73;101605.03;350917;28;1302;-66
2021/10/19 01:05:34;;;;;;;5.57;3.40;;;;;;;27.29;41.63;101596.78;349412;28;1021;-64
2021/10/19 01:05:46;;;;;;;5.60;3.47;;;;;;;27.30;41.69;101595.81;349510;28;1024;-65
2021/10/19 01:06:00;;;;;;;5.57;3.53;;;;;;;27.28;41.76;101598.66;349420;28;1922;-67
2021/10/19 01:06:13;;;;;;;5.47;3.53;;;;;;;27.37;41.60;101611.28;349542;28;1096;-64
2021/10/19 01:06:25;;;;;;;5.60;3.50;;;;;;;27.31;41.36;101601.06;350597;28;1139;-66
2021/10/19 01:06:42;;;;;;;6.47;3.50;;;;;;;27.37;41.38;101613.16;350903;28;1164;-66
2021/10/19 01:06:55;;;;;;;6.47;3.40;;;;;;;27.32;41.29;101600.06;350917;28;1184;-66
2021/10/19 01:07:13;;;;;;;5.93;3.40;;;;;;;27.31;41.42;101601.06;350936;28;1172;-66
2021/10/19 01:07:25;;;;;;;7.13;3.50;;;;;;;27.31;41.64;101602.91;350866;28;1207;-63
2021/10/19 01:07:43;;;;;;;7.00;3.70;;;;;;;27.38;41.51;101609.44;349400;28;1788;-65
2021/10/19 01:07:55;;;;;;;6.20;3.80;;;;;;;27.36;41.46;101606.88;349369;28;1134;-64